Historyczne dane pomiarowe

Dodano dane terminowe – wersja testowa.

Dane z okresu 1951-2019

Wersja bazy: 1.34 [2019-03-16, lista zmian], aktualizacja planowana na 2019-04-15

Dane meteo z obszaru Polski uzyskane na podstawie danych udostępnionych przez Instytut Meteorologii i Gospodarki Wodnej – Państwowy Instytut Badawczy.

 

Wybierz Datę:    

       

TemperaturaWilgotnośćWiatrCiśnienieOpadyŚniegCzas trwania zjawisk
 Stacja t tx tn tng RH VA  wxwx mslp ppp RRR   cm mm wxwxwxwxwxwxwx
1999-08-14 14.9 23.2 5.0 2.2 67.3- 3.3 1.0---- 8.2------------
1999-08-13 14.8 21.5 7.1 2.8 77.3- 6.0 2.0---- 0.0------------
1999-08-12 16.0 19.0 12.3 9.9 84.5- 7.3 1.3---- 0.0------------
1999-08-11 19.1 23.9 16.0 13.9 77.5- 7.3 1.3---- 0.0------------
1999-08-10 20.3 27.5 13.7 12.1 79.0- 5.3 1.0---- 0.0------------
1999-08-09 20.3 28.7 14.5 11.9 81.8- 3.3 1.3---- 10.3------------
1999-08-08 22.6 29.9 16.0 13.4 71.0- 3.7 1.0---- 2.1------------
1999-08-07 21.8 30.9 12.1 9.1 63.5- 3.7 1.3---- 1.8------------
1999-08-06 20.9 28.5 11.4 7.7 56.5- 3.3 1.7---- 0.0------------
1999-08-05 20.4 29.9 9.5 6.3 49.5- 5.3 1.0---- 0.0------------
1999-08-04 19.6 29.5 8.8 5.3 53.5- 3.7 0.7---- 0.0------------
1999-08-03 20.1 28.6 8.4 5.3 49.0- 0.7 1.3---- 0.0------------
1999-08-02 20.6 28.5 9.7 5.3 55.3- 2.0 1.0---- 0.0------------
1999-08-01 21.3 29.3 10.3 6.2 52.8- 1.3 2.0---- 0.0------------
1999-07-31 20.9 29.4 9.4 6.3 47.3- 2.0 1.3---- 0.0------------
1999-07-30 19.2 27.2 8.4 5.3 58.8- 2.3 1.7---- 0.0------------
1999-07-29 19.0 27.1 7.4 3.2 53.0- 2.3 2.0---- 0.0------------
1999-07-28 19.0 26.3 8.9 4.8 48.0- 3.7 1.7---- 0.0------------
1999-07-27 15.4 23.5 6.4 1.3 68.3- 5.3 1.3---- 0.0------------
1999-07-26 19.6 24.9 13.9 10.4 80.3- 6.0 2.7---- 0.0------------
1999-07-25 21.0 27.0 13.9 10.4 70.0- 5.3 1.0---- 0.0------------
1999-07-24 17.5 20.8 15.4 14.0 72.5- 6.3 2.0---- 0.0------------
1999-07-23 16.3 20.8 11.7 7.5 77.5- 7.7 2.0---- 0.4------------
1999-07-22 18.9 24.6 13.8 8.6 50.3- 3.7 2.3---- 0.0------------
1999-07-21 22.3 28.4 14.7 11.0 66.0- 3.3 1.3---- 0.0------------
1999-07-20 22.2 30.4 11.9 8.9 59.3- 4.3 1.7---- 0.0------------
1999-07-19 23.4 32.4 12.9 10.4 53.3- 3.3 0.7---- 0.0------------
1999-07-18 22.6 30.4 13.4 9.9 56.8- 2.7 1.7---- 0.0------------
1999-07-17 18.4 25.4 10.9 10.1 60.5- 5.7 1.3---- 0.0------------
1999-07-16 16.7 21.4 11.4 9.7 72.8- 5.7 0.7---- 0.0------------
1999-07-15 17.6 21.2 12.9 10.7 62.8- 4.3 2.3---- 0.0------------
1999-07-14 20.8 24.5 17.5 14.9 80.8- 7.3 1.7---- 4.4------------
1999-07-13 22.5 29.4 15.7 13.0 77.5- 5.0 1.7---- 0.0------------
1999-07-12 22.8 30.4 13.8 10.5 65.8- 4.0 2.3---- 0.7------------
1999-07-11 22.1 28.4 14.4 10.9 57.5- 1.7 2.7---- 0.0------------
1999-07-10 21.2 27.0 13.9 10.3 57.8- 2.3 2.7---- 0.0------------
1999-07-09 19.8 25.4 14.5 13.9 67.0- 2.3 3.0---- 0.0------------
1999-07-08 17.8 22.0 14.9 13.2 79.0- 6.7 1.3---- 10.4------------
1999-07-07 17.9 21.0 15.5 14.4 89.5- 7.0 1.3---- 0.0------------
1999-07-06 22.9 28.5 19.1 16.4 83.8- 7.3 2.3---- 12.0------------
1999-07-05 25.1 33.4 15.3 12.2 68.8- 3.7 2.7---- 0.0------------
1999-07-04 22.5 29.3 15.1 11.4 70.5- 3.7 1.3---- 0.0------------
1999-07-03 21.3 27.1 14.9 11.3 67.0- 3.0 1.3---- 0.0------------
1999-07-02 16.7 22.0 11.0 7.9 80.5- 6.3 1.0---- 0.0------------
1999-07-01 19.3 23.9 16.9 15.1 88.5- 7.7 1.7---- 15.3------------
1999-06-30 20.2 27.5 11.3 7.6 65.0- 5.7 1.3---- 3.5------------
1999-06-29 18.6 24.5 9.9 5.8 61.5- 3.0 1.3---- 0.0------------
1999-06-28 20.8 26.4 16.5 11.9 80.0- 3.7 1.0---- 3.2------------
1999-06-27 19.1 25.9 9.9 5.3 75.0- 6.0 6.3---- 0.0------------
1999-06-26 12.9 20.2 3.5 -0.4 71.0- 3.0 1.0---- 0.0------------
1999-06-25 12.9 18.3 5.4 2.3 69.8- 3.7 1.7---- 0.0------------
1999-06-24 12.2 18.8 3.0 -0.2 67.0- 4.3 1.0---- 0.0------------
1999-06-23 13.8 17.7 10.3 8.4 73.0- 5.7 2.3---- 0.0------------
1999-06-22 11.3 14.8 6.5 3.3 89.8- 7.3 1.7---- 5.1------------
1999-06-21 15.8 20.6 12.5 11.3 83.0- 6.7 2.7---- 1.1------------
1999-06-20 18.1 23.4 10.7 6.5 71.5- 3.7 3.0---- 1.2------------
1999-06-19 16.5 20.3 12.1 8.4 85.3- 7.3 1.3---- 0.0------------
1999-06-18 17.8 21.8 12.4 8.9 74.0- 7.7 3.7---- 0.0------------
1999-06-17 18.8 24.3 13.4 11.9 71.8- 7.7 1.0---- 0.0------------
1999-06-16 16.5 21.4 9.4 7.2 78.8- 5.3 1.0---- 0.0------------
225.6 ms

 

Źródłem pochodzenia danych jest Instytut Meteorologii i Gospodarki Wodnej – Państwowy Instytut Badawczy. Dane Instytutu Meteorologii i Gospodarki Wodnej – Państwowego Instytutu Badawczego zostały przetworzone.

Dane źródłowe można odnaleźć na stronie https://dane.imgw.pl